Altavista, Virginia
Current Conditions -  °F | °C
As of 11:55 PM on Friday 24 Oct 2014 (Local Time) from K0V4 Reporting Station
Clear Clear  
Wind Chill: 45°   Ceiling: Unl
Heat Index: 45°   Visibility: 10mi
Dew Point: 44°   Wind: 0mph
Humidity: 98%   Direction: NA
Pressure: 29.98"   Gusts: NA
Location:  37.11°N, 79.29°W
Report Text: K0V4 250355Z AUTO 00000KT 10SM CLR 07/07 A2998 RMK AO1 T00710068
Loading
Personal Weather Stations






























Interactive Weather Map
Tropical Storm Tracking
New forecast layout! Learn more

10-Day Weather Forecast

Advertisements
Track Severe Weather on mobile